Time;durP1;ratioP1;P1;durP2;ratioP2;P2;SDS_P1;SDS_P2;PMS_P1;PMS_P2;Temp;Humidity;BMP_temperature;BMP_pressure;BME280_temperature;BME280_humidity;BME280_pressure;Samples;Min_cycle;Max_cycle;Signal;HPM_P1;HPM_P2
2023/12/11 00:01:34;;;;;;;4.47;0.90;;;;;;;;;;5033758;28;20473;-77
2023/12/11 00:03:59;;;;;;;5.40;0.90;;;;;;;;;;5034257;28;20492;-77
2023/12/11 00:06:24;;;;;;;2.88;0.77;;;;;;;;;;5036527;28;20041;-78
2023/12/11 00:08:50;;;;;;;4.87;1.30;;;;;;;;;;5040835;28;20025;-78
2023/12/11 00:11:15;;;;;;;5.97;1.17;;;;;;;;;;5038877;28;20328;-78
2023/12/11 00:13:40;;;;;;;5.53;1.17;;;;;;;;;;5021462;28;20668;-78
2023/12/11 00:16:05;;;;;;;5.00;1.23;;;;;;;;;;5020070;28;20021;-78
2023/12/11 00:18:31;;;;;;;9.32;1.58;;;;;;;;;;5020868;28;20551;-79
2023/12/11 00:20:56;;;;;;;4.20;1.45;;;;;;;;;;5038637;28;20116;-79
2023/12/11 00:23:21;;;;;;;7.88;1.73;;;;;;;;;;5021238;28;20025;-78
2023/12/11 00:25:46;;;;;;;5.13;1.60;;;;;;;;;;5039761;28;20098;-78
2023/12/11 00:28:12;;;;;;;9.30;1.85;;;;;;;;;;5039988;28;20336;-78
2023/12/11 00:30:37;;;;;;;4.20;1.58;;;;;;;;;;5022827;28;20033;-78
2023/12/11 00:33:02;;;;;;;4.50;1.67;;;;;;;;;;5037659;28;20030;-78
2023/12/11 00:35:27;;;;;;;4.93;1.67;;;;;;;;;;5037348;28;20278;-78
2023/12/11 00:37:53;;;;;;;6.95;2.10;;;;;;;;;;5038975;28;20025;-77
2023/12/11 00:40:18;;;;;;;10.67;2.50;;;;;;;;;;5038476;28;20038;-79
2023/12/11 00:42:43;;;;;;;3.37;1.70;;;;;;;;;;5037543;28;20263;-78
2023/12/11 00:45:12;;;;;;;6.40;1.75;;;;;;;;;;5038136;28;20270;-78
2023/12/11 00:47:37;;;;;;;4.30;1.70;;;;;;;;;;5038617;28;20032;-78
2023/12/11 00:50:03;;;;;;;8.13;1.70;;;;;;;;;;5037938;28;20393;-78
2023/12/11 00:52:29;;;;;;;4.43;1.50;;;;;;;;;;5020343;28;20630;-78
2023/12/11 00:54:54;;;;;;;4.20;1.40;;;;;;;;;;5038141;28;20165;-77
2023/12/11 00:57:19;;;;;;;3.60;1.40;;;;;;;;;;5037432;28;20053;-78
2023/12/11 00:59:44;;;;;;;4.77;1.47;;;;;;;;;;5037224;28;20313;-78
2023/12/11 01:02:09;;;;;;;5.00;1.70;;;;;;;;;;5019358;28;20267;-78
2023/12/11 01:04:35;;;;;;;3.00;0.98;;;;;;;;;;5039296;28;20032;-78
2023/12/11 01:07:00;;;;;;;3.50;1.20;;;;;;;;;;5023091;28;20125;-77
2023/12/11 01:09:25;;;;;;;4.00;1.23;;;;;;;;;;5039423;28;20294;-77
2023/12/11 01:11:50;;;;;;;2.63;0.97;;;;;;;;;;5040035;28;20267;-78
2023/12/11 01:14:15;;;;;;;2.55;0.85;;;;;;;;;;5041188;28;20274;-78
2023/12/11 01:16:41;;;;;;;4.37;1.00;;;;;;;;;;5040056;28;20022;-78
2023/12/11 01:19:07;;;;;;;2.72;0.90;;;;;;;;;;5023758;28;20284;-79
2023/12/11 01:21:33;;;;;;;4.75;0.90;;;;;;;;;;5040204;28;20029;-78
2023/12/11 01:23:58;;;;;;;4.53;1.25;;;;;;;;;;5039777;28;20124;-77
2023/12/11 01:26:23;;;;;;;5.80;0.80;;;;;;;;;;5019265;28;20033;-78
2023/12/11 01:28:48;;;;;;;1.40;0.68;;;;;;;;;;5021629;28;20560;-78
2023/12/11 01:31:14;;;;;;;3.90;0.70;;;;;;;;;;5038890;28;20146;-78
2023/12/11 01:33:39;;;;;;;2.03;0.77;;;;;;;;;;5039113;28;20289;-77
2023/12/11 01:36:04;;;;;;;2.97;0.90;;;;;;;;;;5019023;28;20021;-77
2023/12/11 01:38:30;;;;;;;3.67;0.85;;;;;;;;;;5037742;28;20025;-77
2023/12/11 01:40:55;;;;;;;2.93;1.20;;;;;;;;;;5038844;28;20025;-78
2023/12/11 01:43:20;;;;;;;2.38;0.73;;;;;;;;;;5038161;28;20689;-78
2023/12/11 01:45:50;;;;;;;4.47;0.90;;;;;;;;;;5037940;28;20028;-79
2023/12/11 01:48:15;;;;;;;2.90;0.60;;;;;;;;;;5037122;28;20029;-77
2023/12/11 01:50:41;;;;;;;3.95;1.08;;;;;;;;;;5019160;28;20045;-77
2023/12/11 01:53:08;;;;;;;3.13;0.63;;;;;;;;;;5037660;28;20094;-78
2023/12/11 01:55:35;;;;;;;2.88;0.75;;;;;;;;;;5037873;28;20030;-78
2023/12/11 01:58:02;;;;;;;3.85;0.80;;;;;;;;;;5036835;28;20033;-78
2023/12/11 02:00:28;;;;;;;2.03;0.60;;;;;;;;;;5037867;28;20068;-78
2023/12/11 02:02:53;;;;;;;3.03;0.85;;;;;;;;;;5037723;28;20041;-78
2023/12/11 02:05:19;;;;;;;4.35;0.73;;;;;;;;;;5023393;28;20034;-79
2023/12/11 02:07:44;;;;;;;1.15;0.50;;;;;;;;;;5039418;28;20029;-78
2023/12/11 02:10:09;;;;;;;0.93;0.57;;;;;;;;;;5036330;28;20132;-77
2023/12/11 02:12:35;;;;;;;2.65;0.60;;;;;;;;;;5036051;28;20478;-77
2023/12/11 02:15:00;;;;;;;2.60;0.80;;;;;;;;;;5023366;28;20021;-78
2023/12/11 02:17:26;;;;;;;2.50;0.80;;;;;;;;;;5018720;28;20029;-78
2023/12/11 02:19:51;;;;;;;3.97;0.67;;;;;;;;;;5036156;28;20056;-77
2023/12/11 02:22:17;;;;;;;1.27;0.70;;;;;;;;;;5036197;28;20278;-77
2023/12/11 02:24:47;;;;;;;1.67;0.43;;;;;;;;;;5035490;28;20056;-77
2023/12/11 02:27:12;;;;;;;3.03;0.55;;;;;;;;;;5034100;28;20025;-78
2023/12/11 02:29:37;;;;;;;4.00;0.68;;;;;;;;;;5034894;28;20021;-77
2023/12/11 02:32:03;;;;;;;3.58;0.80;;;;;;;;;;5036041;28;20047;-78
2023/12/11 02:34:28;;;;;;;1.70;0.60;;;;;;;;;;5034943;28;20037;-77
2023/12/11 02:36:53;;;;;;;3.03;0.67;;;;;;;;;;5017506;28;20050;-77
2023/12/11 02:39:18;;;;;;;2.50;0.57;;;;;;;;;;5018021;28;20270;-77
2023/12/11 02:41:44;;;;;;;6.43;1.10;;;;;;;;;;5036106;28;20273;-77
2023/12/11 02:44:09;;;;;;;3.93;0.80;;;;;;;;;;5036086;28;20349;-78
2023/12/11 02:46:34;;;;;;;2.80;0.70;;;;;;;;;;5016304;28;20343;-77
2023/12/11 02:48:59;;;;;;;3.90;0.80;;;;;;;;;;5035550;28;20026;-77
2023/12/11 02:51:24;;;;;;;1.40;0.60;;;;;;;;;;5040951;28;20348;-78
2023/12/11 02:53:50;;;;;;;4.80;0.80;;;;;;;;;;5031372;28;20258;-77
2023/12/11 02:56:15;;;;;;;1.58;0.55;;;;;;;;;;5036558;28;20315;-77
2023/12/11 02:58:43;;;;;;;4.27;0.83;;;;;;;;;;5035764;28;20051;-77
2023/12/11 03:01:08;;;;;;;4.15;0.60;;;;;;;;;;5033636;28;20258;-76
2023/12/11 03:03:33;;;;;;;1.47;0.50;;;;;;;;;;5034071;28;20029;-78
2023/12/11 03:06:00;;;;;;;2.78;0.93;;;;;;;;;;5034249;28;20321;-78
2023/12/11 03:08:25;;;;;;;2.47;0.70;;;;;;;;;;5036451;28;20077;-78
2023/12/11 03:10:50;;;;;;;3.47;0.93;;;;;;;;;;5034927;28;20025;-77
2023/12/11 03:13:16;;;;;;;3.20;0.77;;;;;;;;;;5020590;28;20266;-78
2023/12/11 03:15:41;;;;;;;5.20;0.70;;;;;;;;;;5041183;28;20065;-79
2023/12/11 03:18:06;;;;;;;3.53;0.83;;;;;;;;;;5038656;28;20056;-77
2023/12/11 03:20:31;;;;;;;2.97;0.70;;;;;;;;;;5038762;28;20266;-78
2023/12/11 03:22:56;;;;;;;2.30;0.90;;;;;;;;;;5021186;28;20044;-78
2023/12/11 03:25:22;;;;;;;3.53;0.88;;;;;;;;;;5020000;28;20071;-78
2023/12/11 03:27:47;;;;;;;1.52;0.65;;;;;;;;;;5021119;28;20021;-78
2023/12/11 03:30:12;;;;;;;3.25;0.70;;;;;;;;;;5021464;28;20453;-78
2023/12/11 03:32:37;;;;;;;1.87;0.80;;;;;;;;;;5035787;28;20389;-78
2023/12/11 03:35:03;;;;;;;3.80;0.68;;;;;;;;;;5034040;28;20685;-77
2023/12/11 03:37:28;;;;;;;1.92;0.60;;;;;;;;;;5035152;28;20029;-77
2023/12/11 03:39:54;;;;;;;6.90;0.90;;;;;;;;;;5037594;28;20060;-77
2023/12/11 03:42:19;;;;;;;1.95;0.80;;;;;;;;;;5037814;28;20266;-77
2023/12/11 03:44:44;;;;;;;1.55;0.47;;;;;;;;;;5020379;28;20025;-77
2023/12/11 03:47:09;;;;;;;5.15;1.00;;;;;;;;;;5041330;28;20100;-78
2023/12/11 03:49:35;;;;;;;6.75;1.10;;;;;;;;;;5038722;28;20392;-78
2023/12/11 03:52:00;;;;;;;3.40;0.87;;;;;;;;;;5019127;28;20029;-77
2023/12/11 03:54:25;;;;;;;3.00;0.90;;;;;;;;;;5041678;28;20282;-77
2023/12/11 03:56:50;;;;;;;4.15;0.80;;;;;;;;;;5036439;28;20021;-77
2023/12/11 03:59:16;;;;;;;6.67;0.80;;;;;;;;;;5038494;28;20040;-77
2023/12/11 04:01:41;;;;;;;5.35;0.95;;;;;;;;;;5041821;28;20266;-77
2023/12/11 04:04:06;;;;;;;3.33;0.90;;;;;;;;;;5023948;28;20018;-78
2023/12/11 04:06:32;;;;;;;2.78;0.75;;;;;;;;;;5042990;28;20259;-79
2023/12/11 04:08:57;;;;;;;4.77;0.83;;;;;;;;;;5041657;28;20488;-78
2023/12/11 04:11:22;;;;;;;3.47;0.95;;;;;;;;;;5040163;28;20259;-78
2023/12/11 04:13:47;;;;;;;1.95;0.80;;;;;;;;;;5040625;28;20021;-78
2023/12/11 04:16:13;;;;;;;6.95;1.90;;;;;;;;;;5023480;28;20029;-78
2023/12/11 04:18:38;;;;;;;4.55;1.30;;;;;;;;;;5040435;28;20026;-78
2023/12/11 04:21:04;;;;;;;6.32;1.10;;;;;;;;;;5040973;28;20029;-77
2023/12/11 04:23:29;;;;;;;4.22;1.15;;;;;;;;;;5021858;28;20025;-77
2023/12/11 04:25:58;;;;;;;1.90;0.70;;;;;;;;;;5038867;28;20022;-77
2023/12/11 04:28:23;;;;;;;0.95;0.73;;;;;;;;;;5024088;28;20344;-79
2023/12/11 04:30:49;;;;;;;1.77;0.60;;;;;;;;;;5041798;28;20477;-78
2023/12/11 04:33:14;;;;;;;3.53;1.00;;;;;;;;;;5044326;28;20033;-78
2023/12/11 04:35:39;;;;;;;1.83;0.57;;;;;;;;;;5039642;28;20278;-78
2023/12/11 04:38:04;;;;;;;4.82;0.82;;;;;;;;;;5041867;28;20032;-78
2023/12/11 04:40:30;;;;;;;2.28;1.00;;;;;;;;;;5022104;28;20489;-78
2023/12/11 04:42:55;;;;;;;3.05;0.80;;;;;;;;;;5042922;28;20055;-78
2023/12/11 04:45:20;;;;;;;3.67;0.70;;;;;;;;;;5039799;28;20024;-77
2023/12/11 04:47:45;;;;;;;3.92;1.00;;;;;;;;;;5040893;28;20255;-77
2023/12/11 04:50:11;;;;;;;3.13;0.83;;;;;;;;;;5037690;28;20052;-78
2023/12/11 04:52:36;;;;;;;5.85;1.23;;;;;;;;;;5039103;28;20251;-77
2023/12/11 04:55:01;;;;;;;3.07;0.70;;;;;;;;;;5039498;28;20064;-78
2023/12/11 04:57:26;;;;;;;3.42;0.70;;;;;;;;;;5038204;28;20261;-79
2023/12/11 04:59:51;;;;;;;3.55;1.00;;;;;;;;;;5024397;28;20131;-78
2023/12/11 05:02:17;;;;;;;3.77;1.00;;;;;;;;;;5039246;28;20032;-78
2023/12/11 05:04:42;;;;;;;2.58;0.60;;;;;;;;;;5037089;28;20255;-78
2023/12/11 05:07:07;;;;;;;4.87;0.70;;;;;;;;;;5043667;28;20021;-79
2023/12/11 05:09:32;;;;;;;2.65;0.73;;;;;;;;;;5042630;28;20281;-78
2023/12/11 05:11:58;;;;;;;3.47;0.83;;;;;;;;;;5040483;28;20026;-78
2023/12/11 05:14:23;;;;;;;3.05;0.90;;;;;;;;;;5039363;28;20278;-78
2023/12/11 05:16:48;;;;;;;1.05;0.65;;;;;;;;;;5043074;28;20033;-79
2023/12/11 05:19:13;;;;;;;3.77;0.80;;;;;;;;;;5020712;28;20033;-79
2023/12/11 05:21:43;;;;;;;4.20;0.97;;;;;;;;;;5040214;28;20417;-78
2023/12/11 05:24:08;;;;;;;2.08;0.70;;;;;;;;;;5020805;28;20263;-78
2023/12/11 05:26:33;;;;;;;4.75;0.95;;;;;;;;;;5039220;28;20044;-78
2023/12/11 05:29:00;;;;;;;3.80;0.85;;;;;;;;;;5037973;28;20047;-78
2023/12/11 05:31:25;;;;;;;2.50;0.73;;;;;;;;;;5020476;28;20164;-77
2023/12/11 05:33:50;;;;;;;4.75;0.95;;;;;;;;;;5020563;28;20076;-79
2023/12/11 05:36:16;;;;;;;2.22;0.80;;;;;;;;;;5036813;28;20036;-77
2023/12/11 05:38:41;;;;;;;4.77;0.90;;;;;;;;;;5021089;28;20424;-78
2023/12/11 05:41:06;;;;;;;3.57;0.83;;;;;;;;;;5042278;28;20314;-78
2023/12/11 05:43:31;;;;;;;4.78;1.00;;;;;;;;;;5042606;28;20671;-78
2023/12/11 05:45:57;;;;;;;6.75;0.77;;;;;;;;;;5019045;28;20075;-78
2023/12/11 05:48:22;;;;;;;4.60;1.08;;;;;;;;;;5038133;28;20064;-78
2023/12/11 05:50:47;;;;;;;4.60;0.70;;;;;;;;;;5038949;28;20029;-78
2023/12/11 05:53:12;;;;;;;3.40;0.77;;;;;;;;;;5038900;28;20282;-78
2023/12/11 05:55:37;;;;;;;4.30;0.90;;;;;;;;;;5020255;28;20279;-78
2023/12/11 05:58:03;;;;;;;2.55;0.73;;;;;;;;;;5024644;28;20017;-76
2023/12/11 06:00:28;;;;;;;5.00;0.90;;;;;;;;;;5039912;28;20025;-78
2023/12/11 06:02:53;;;;;;;2.50;0.80;;;;;;;;;;5037945;28;20190;-78
2023/12/11 06:05:19;;;;;;;3.80;0.90;;;;;;;;;;5037742;28;20025;-78
2023/12/11 06:07:44;;;;;;;4.57;1.05;;;;;;;;;;5035820;28;20029;-77
2023/12/11 06:10:09;;;;;;;5.13;1.00;;;;;;;;;;5018400;28;20032;-79
2023/12/11 06:12:34;;;;;;;3.67;0.93;;;;;;;;;;5034896;28;20261;-77
2023/12/11 06:15:00;;;;;;;4.85;1.13;;;;;;;;;;5033572;28;20091;-78
2023/12/11 06:17:25;;;;;;;3.07;0.90;;;;;;;;;;5033805;28;20030;-77
2023/12/11 06:19:50;;;;;;;5.78;1.45;;;;;;;;;;5016421;28;20285;-78
2023/12/11 06:22:16;;;;;;;4.15;1.17;;;;;;;;;;5019096;28;20051;-78
2023/12/11 06:24:41;;;;;;;4.38;1.10;;;;;;;;;;5037978;28;20029;-78
2023/12/11 06:27:07;;;;;;;2.10;1.05;;;;;;;;;;5035965;28;20029;-79
2023/12/11 06:29:32;;;;;;;6.38;1.15;;;;;;;;;;5038937;28;20480;-84
2023/12/11 06:31:58;;;;;;;4.65;1.30;;;;;;;;;;5042057;28;20032;-78
2023/12/11 06:34:23;;;;;;;6.77;1.60;;;;;;;;;;5039224;28;20477;-78
2023/12/11 06:36:48;;;;;;;5.78;1.60;;;;;;;;;;5039511;28;20816;-77
2023/12/11 06:39:13;;;;;;;2.67;1.15;;;;;;;;;;5035739;28;20500;-77
2023/12/11 06:41:39;;;;;;;6.25;1.20;;;;;;;;;;5034039;28;20084;-78
2023/12/11 06:44:04;;;;;;;7.67;1.07;;;;;;;;;;5016467;28;20048;-77
2023/12/11 06:46:30;;;;;;;4.60;1.10;;;;;;;;;;5034312;28;20259;-77
2023/12/11 06:48:56;;;;;;;4.35;1.00;;;;;;;;;;5017434;28;20028;-77
2023/12/11 06:51:23;;;;;;;2.17;0.90;;;;;;;;;;5034246;28;20479;-77
2023/12/11 06:53:49;;;;;;;4.78;1.25;;;;;;;;;;5017042;28;20537;-77
2023/12/11 06:56:18;;;;;;;5.80;1.35;;;;;;;;;;5036606;28;20034;-77
2023/12/11 06:58:44;;;;;;;3.40;1.20;;;;;;;;;;5036807;28;20056;-78
2023/12/11 07:01:09;;;;;;;6.43;1.17;;;;;;;;;;5038069;28;20029;-77
2023/12/11 07:03:35;;;;;;;5.97;1.20;;;;;;;;;;5037516;28;20064;-78
2023/12/11 07:06:00;;;;;;;4.40;1.13;;;;;;;;;;5019273;28;20396;-78
2023/12/11 07:08:25;;;;;;;5.53;1.00;;;;;;;;;;5038986;28;20607;-77
2023/12/11 07:10:50;;;;;;;2.45;0.90;;;;;;;;;;5043625;28;20614;-79
2023/12/11 07:13:16;;;;;;;7.97;1.80;;;;;;;;;;5034458;28;20025;-79
2023/12/11 07:15:41;;;;;;;5.43;1.70;;;;;;;;;;5040643;28;20017;-78
2023/12/11 07:18:07;;;;;;;8.07;1.88;;;;;;;;;;5038970;28;20544;-78
2023/12/11 07:20:33;;;;;;;4.65;1.33;;;;;;;;;;5038489;28;20061;-78
2023/12/11 07:22:58;;;;;;;3.50;1.38;;;;;;;;;;5038891;28;20021;-78
2023/12/11 07:25:23;;;;;;;4.07;1.25;;;;;;;;;;5038963;28;20032;-78
2023/12/11 07:27:49;;;;;;;4.03;1.30;;;;;;;;;;5034053;28;20437;-76
2023/12/11 07:30:14;;;;;;;5.78;1.55;;;;;;;;;;5032745;28;20780;-75
2023/12/11 07:32:39;;;;;;;3.60;1.03;;;;;;;;;;5032600;28;20026;-77
2023/12/11 07:35:08;;;;;;;3.80;1.05;;;;;;;;;;5032599;28;20332;-76
2023/12/11 07:37:33;;;;;;;5.40;1.13;;;;;;;;;;5016108;28;20029;-76
2023/12/11 07:39:58;;;;;;;3.15;1.27;;;;;;;;;;5032709;28;20066;-75
2023/12/11 07:42:23;;;;;;;5.07;1.20;;;;;;;;;;5033637;28;20037;-79
2023/12/11 07:44:49;;;;;;;4.00;1.20;;;;;;;;;;5033549;28;20123;-75
2023/12/11 07:47:14;;;;;;;7.50;1.23;;;;;;;;;;5033192;28;20285;-76
2023/12/11 07:49:39;;;;;;;4.82;1.10;;;;;;;;;;5033947;28;20263;-78
2023/12/11 07:52:05;;;;;;;5.80;1.30;;;;;;;;;;5015998;28;20044;-77
2023/12/11 07:54:30;;;;;;;5.88;1.20;;;;;;;;;;5032789;28;20449;-76
2023/12/11 07:56:55;;;;;;;4.40;1.17;;;;;;;;;;5015545;28;20030;-76
2023/12/11 07:59:20;;;;;;;2.93;0.90;;;;;;;;;;5032438;28;20309;-76
2023/12/11 08:01:46;;;;;;;3.33;1.00;;;;;;;;;;5032514;28;20266;-76
2023/12/11 08:04:12;;;;;;;4.75;1.33;;;;;;;;;;5014933;28;20025;-76
2023/12/11 08:06:44;;;;;;;3.08;1.08;;;;;;;;;;5032943;28;20029;-75
2023/12/11 08:09:11;;;;;;;4.25;1.27;;;;;;;;;;5032227;28;20045;-76
2023/12/11 08:11:36;;;;;;;14.68;3.83;;;;;;;;;;5032672;28;20146;-75
2023/12/11 08:14:01;;;;;;;11.23;2.67;;;;;;;;;;5034020;28;20021;-75
2023/12/11 08:16:27;;;;;;;3.57;1.40;;;;;;;;;;5032860;28;20038;-75
2023/12/11 08:18:52;;;;;;;6.97;1.98;;;;;;;;;;5032385;28;20293;-75
2023/12/11 08:21:17;;;;;;;6.37;2.13;;;;;;;;;;5031241;28;20025;-76
2023/12/11 08:23:43;;;;;;;7.57;2.13;;;;;;;;;;5030457;28;20264;-77
2023/12/11 08:26:09;;;;;;;4.60;1.52;;;;;;;;;;5033456;28;20067;-76
2023/12/11 08:28:35;;;;;;;7.22;1.17;;;;;;;;;;5015629;28;20120;-75
2023/12/11 08:31:00;;;;;;;5.90;1.20;;;;;;;;;;5033575;28;20025;-75
2023/12/11 08:33:25;;;;;;;2.05;0.80;;;;;;;;;;5033641;28;20612;-75
2023/12/11 08:35:50;;;;;;;8.80;1.00;;;;;;;;;;5033920;28;20021;-76
2023/12/11 08:38:16;;;;;;;6.65;1.42;;;;;;;;;;5033842;28;20262;-75
2023/12/11 08:40:42;;;;;;;3.47;0.93;;;;;;;;;;5034604;28;20443;-74
2023/12/11 08:43:08;;;;;;;5.28;1.33;;;;;;;;;;5035974;28;20116;-77
2023/12/11 08:45:34;;;;;;;4.85;1.00;;;;;;;;;;5016625;28;20056;-76
2023/12/11 08:47:59;;;;;;;5.13;0.93;;;;;;;;;;5033157;28;20032;-76
2023/12/11 08:50:24;;;;;;;2.20;0.68;;;;;;;;;;5033377;28;20026;-76
2023/12/11 08:52:49;;;;;;;9.00;1.08;;;;;;;;;;5033163;28;20025;-76
2023/12/11 08:55:15;;;;;;;5.07;0.90;;;;;;;;;;5035183;28;20025;-75
2023/12/11 08:57:44;;;;;;;3.58;0.90;;;;;;;;;;5035424;28;20266;-76
2023/12/11 09:00:10;;;;;;;3.75;0.88;;;;;;;;;;5017964;28;20420;-76
2023/12/11 09:02:36;;;;;;;4.95;1.45;;;;;;;;;;5035636;28;20017;-77
2023/12/11 09:05:01;;;;;;;2.72;0.88;;;;;;;;;;5035401;28;20055;-77
2023/12/11 09:07:26;;;;;;;3.92;0.90;;;;;;;;;;5016792;28;20032;-77
2023/12/11 09:09:52;;;;;;;7.80;1.42;;;;;;;;;;5017249;28;20374;-78
2023/12/11 09:12:17;;;;;;;3.30;0.90;;;;;;;;;;5035162;28;20030;-75
2023/12/11 09:14:42;;;;;;;3.83;0.77;;;;;;;;;;5017287;28;20021;-75
2023/12/11 09:17:07;;;;;;;4.93;1.00;;;;;;;;;;5035290;28;20095;-75
2023/12/11 09:19:33;;;;;;;6.55;1.02;;;;;;;;;;5035543;28;20033;-76
2023/12/11 09:21:58;;;;;;;2.67;1.15;;;;;;;;;;5035251;28;20056;-76
2023/12/11 09:24:23;;;;;;;4.85;1.23;;;;;;;;;;5034657;28;20398;-76
2023/12/11 09:26:49;;;;;;;3.78;1.20;;;;;;;;;;5016956;28;20477;-76
2023/12/11 09:29:15;;;;;;;4.13;1.10;;;;;;;;;;5035707;28;20040;-77
2023/12/11 09:31:40;;;;;;;3.13;1.10;;;;;;;;;;5035847;28;20029;-77
2023/12/11 09:34:05;;;;;;;7.70;1.55;;;;;;;;;;5035452;28;20035;-76
2023/12/11 09:36:30;;;;;;;5.43;1.40;;;;;;;;;;5017152;28;20026;-76
2023/12/11 09:38:55;;;;;;;7.13;1.47;;;;;;;;;;5017782;28;20266;-77
2023/12/11 09:41:21;;;;;;;4.03;1.10;;;;;;;;;;5037524;28;20292;-76
2023/12/11 09:43:47;;;;;;;6.57;1.00;;;;;;;;;;5017088;28;20279;-74
2023/12/11 09:46:16;;;;;;;2.95;1.15;;;;;;;;;;5034277;28;20045;-74
2023/12/11 09:48:42;;;;;;;3.95;0.90;;;;;;;;;;5034341;28;20068;-74
2023/12/11 09:51:08;;;;;;;8.90;1.05;;;;;;;;;;5033002;28;20028;-75
2023/12/11 09:53:35;;;;;;;4.68;1.08;;;;;;;;;;5034025;28;20105;-74
2023/12/11 09:56:00;;;;;;;4.40;1.00;;;;;;;;;;5016426;28;20021;-74
2023/12/11 09:58:26;;;;;;;2.88;0.90;;;;;;;;;;5033827;28;20071;-74
2023/12/11 10:00:51;;;;;;;3.75;0.90;;;;;;;;;;5034212;28;20029;-75
2023/12/11 10:03:17;;;;;;;4.72;1.00;;;;;;;;;;5034047;28;20064;-74
2023/12/11 10:05:42;;;;;;;3.90;1.10;;;;;;;;;;5034035;28;20115;-74
2023/12/11 10:08:07;;;;;;;6.95;1.20;;;;;;;;;;5033898;28;20388;-73
2023/12/11 10:10:38;;;;;;;2.13;0.82;;;;;;;;;;5034013;28;20033;-73
2023/12/11 10:13:03;;;;;;;5.47;1.02;;;;;;;;;;5016069;28;20030;-74
2023/12/11 10:15:31;;;;;;;6.32;1.30;;;;;;;;;;5034009;28;20021;-74
2023/12/11 10:18:04;;;;;;;4.05;1.10;;;;;;;;;;5034179;28;20048;-73
2023/12/11 10:20:30;;;;;;;4.78;0.80;;;;;;;;;;5016190;28;20025;-74
2023/12/11 10:22:55;;;;;;;2.90;0.85;;;;;;;;;;5033929;28;20533;-74
2023/12/11 10:25:28;;;;;;;3.50;1.10;;;;;;;;;;5033731;28;20049;-74
2023/12/11 10:28:04;;;;;;;5.15;1.15;;;;;;;;;;5033656;28;20076;-74
2023/12/11 10:30:29;;;;;;;7.82;1.20;;;;;;;;;;5033797;28;20026;-75
2023/12/11 10:33:00;;;;;;;2.45;0.63;;;;;;;;;;5033605;28;20120;-76
2023/12/11 10:35:25;;;;;;;4.60;1.10;;;;;;;;;;5016804;28;20021;-81
2023/12/11 10:37:50;;;;;;;3.38;1.08;;;;;;;;;;5034908;28;20075;-76
2023/12/11 10:40:16;;;;;;;5.03;1.07;;;;;;;;;;5033751;28;20068;-75
2023/12/11 10:42:41;;;;;;;5.60;1.10;;;;;;;;;;5015376;28;20274;-75
2023/12/11 10:45:07;;;;;;;3.60;0.90;;;;;;;;;;5016421;28;20017;-76
2023/12/11 10:47:33;;;;;;;2.92;1.15;;;;;;;;;;5033861;28;20269;-76
2023/12/11 10:50:02;;;;;;;4.10;1.10;;;;;;;;;;5015595;28;20036;-78
2023/12/11 10:52:28;;;;;;;4.07;0.90;;;;;;;;;;5014300;28;20045;-77
2023/12/11 10:54:53;;;;;;;4.82;0.98;;;;;;;;;;5030581;28;20515;-78
2023/12/11 10:57:21;;;;;;;2.57;0.80;;;;;;;;;;5030073;28;20056;-77
2023/12/11 10:59:50;;;;;;;2.83;0.52;;;;;;;;;;5030949;28;20259;-76
2023/12/11 11:02:17;;;;;;;2.83;0.70;;;;;;;;;;5013419;28;20072;-77
2023/12/11 11:04:45;;;;;;;5.85;0.95;;;;;;;;;;5030853;28;20152;-77
2023/12/11 11:07:27;;;;;;;4.30;1.20;;;;;;;;;;5031552;28;20112;-76
2023/12/11 11:10:23;;;;;;;4.10;1.08;;;;;;;;;;5015531;28;20041;-75
2023/12/11 11:13:05;;;;;;;3.88;0.75;;;;;;;;;;5033681;28;20025;-76
2023/12/11 11:15:30;;;;;;;3.00;0.88;;;;;;;;;;5032864;28;20108;-75
2023/12/11 11:18:00;;;;;;;3.67;0.90;;;;;;;;;;5032740;28;20459;-77
2023/12/11 11:20:27;;;;;;;2.17;0.80;;;;;;;;;;5014916;28;20457;-76
2023/12/11 11:23:15;;;;;;;3.92;0.80;;;;;;;;;;5032760;28;20021;-76
2023/12/11 11:25:41;;;;;;;3.40;0.95;;;;;;;;;;5015026;28;20022;-76
2023/12/11 11:28:34;;;;;;;5.22;1.00;;;;;;;;;;5014820;28;20412;-76
2023/12/11 11:31:00;;;;;;;1.83;0.70;;;;;;;;;;5015028;28;20446;-76
2023/12/11 11:33:42;;;;;;;5.40;1.00;;;;;;;;;;5014973;28;20108;-76
2023/12/11 11:36:07;;;;;;;2.05;0.80;;;;;;;;;;5033013;28;20282;-76
2023/12/11 11:38:54;;;;;;;3.17;0.80;;;;;;;;;;5015138;28;20512;-76
2023/12/11 11:41:21;;;;;;;1.60;0.80;;;;;;;;;;5015121;28;20033;-75
2023/12/11 11:44:14;;;;;;;3.60;0.82;;;;;;;;;;5015701;28;20033;-76
2023/12/11 11:46:54;;;;;;;3.88;0.85;;;;;;;;;;5015040;28;20034;-76
2023/12/11 11:49:24;;;;;;;6.45;1.10;;;;;;;;;;5033011;28;20032;-76
2023/12/11 11:51:49;;;;;;;1.85;0.73;;;;;;;;;;5032355;28;20115;-76
2023/12/11 11:54:15;;;;;;;4.05;0.88;;;;;;;;;;5032478;28;20493;-75
2023/12/11 11:56:46;;;;;;;2.92;0.70;;;;;;;;;;5033471;28;20052;-76
2023/12/11 11:59:12;;;;;;;2.55;0.80;;;;;;;;;;5033180;28;20108;-75
2023/12/11 12:01:57;;;;;;;3.63;0.90;;;;;;;;;;5036511;28;20138;-76
2023/12/11 12:04:30;;;;;;;2.67;0.70;;;;;;;;;;5036178;28;20025;-76
2023/12/11 12:06:57;;;;;;;4.38;0.80;;;;;;;;;;5036327;28;20061;-76
2023/12/11 12:09:23;;;;;;;5.45;0.70;;;;;;;;;;5019997;28;20083;-77
2023/12/11 12:11:49;;;;;;;4.22;0.80;;;;;;;;;;5039169;28;20029;-77
2023/12/11 12:14:14;;;;;;;2.83;0.80;;;;;;;;;;5037208;28;20116;-77
2023/12/11 12:16:39;;;;;;;2.95;0.73;;;;;;;;;;5037858;28;20025;-80
2023/12/11 12:19:05;;;;;;;3.88;0.98;;;;;;;;;;5038864;28;20112;-77
2023/12/11 12:21:34;;;;;;;2.05;0.70;;;;;;;;;;5037670;28;20395;-78
2023/12/11 12:24:01;;;;;;;2.30;0.70;;;;;;;;;;5038033;28;20396;-78
2023/12/11 12:26:26;;;;;;;1.75;0.65;;;;;;;;;;5037554;28;20027;-77
2023/12/11 12:28:51;;;;;;;2.10;0.90;;;;;;;;;;5037371;28;20033;-78
2023/12/11 12:31:17;;;;;;;1.52;0.55;;;;;;;;;;5036951;28;20021;-77
2023/12/11 12:33:42;;;;;;;2.03;0.47;;;;;;;;;;5018327;28;20033;-77
2023/12/11 12:36:08;;;;;;;2.15;0.73;;;;;;;;;;5036035;28;20022;-77
2023/12/11 12:38:33;;;;;;;3.75;0.60;;;;;;;;;;5037154;28;20025;-78
2023/12/11 12:40:58;;;;;;;2.05;0.63;;;;;;;;;;5036075;28;20029;-77
2023/12/11 12:43:26;;;;;;;1.58;0.60;;;;;;;;;;5036451;28;20057;-77
2023/12/11 12:45:59;;;;;;;3.25;0.80;;;;;;;;;;5018799;28;20031;-77
2023/12/11 12:48:28;;;;;;;1.58;0.98;;;;;;;;;;5036833;28;20033;-77
2023/12/11 12:51:13;;;;;;;1.23;0.60;;;;;;;;;;5036551;28;20022;-77
2023/12/11 12:53:48;;;;;;;0.77;0.70;;;;;;;;;;5018309;28;20125;-77
2023/12/11 12:56:20;;;;;;;4.68;0.60;;;;;;;;;;5036452;28;20034;-77
2023/12/11 12:58:46;;;;;;;2.72;0.90;;;;;;;;;;5036417;28;20036;-77
2023/12/11 13:01:11;;;;;;;2.63;1.25;;;;;;;;;;5018719;28;20404;-77
2023/12/11 13:03:37;;;;;;;2.92;0.90;;;;;;;;;;5035894;28;20121;-76
2023/12/11 13:06:04;;;;;;;3.00;0.70;;;;;;;;;;5017702;28;20036;-76
2023/12/11 13:08:44;;;;;;;1.58;0.70;;;;;;;;;;5035838;28;20021;-79
2023/12/11 13:11:09;;;;;;;2.03;0.80;;;;;;;;;;5022145;28;20027;-77
2023/12/11 13:13:35;;;;;;;5.70;0.80;;;;;;;;;;5035668;28;20124;-77
2023/12/11 13:16:00;;;;;;;2.33;0.88;;;;;;;;;;5035116;28;20060;-77
2023/12/11 13:18:25;;;;;;;1.65;0.77;;;;;;;;;;5020934;28;20031;-78
2023/12/11 13:20:50;;;;;;;1.73;0.75;;;;;;;;;;5037770;28;20025;-78
2023/12/11 13:23:16;;;;;;;2.90;1.05;;;;;;;;;;5038943;28;20018;-77
2023/12/11 13:25:42;;;;;;;2.72;0.95;;;;;;;;;;5020862;28;20024;-78
2023/12/11 13:28:07;;;;;;;2.60;0.90;;;;;;;;;;5037366;28;20029;-78
2023/12/11 13:30:33;;;;;;;3.05;1.02;;;;;;;;;;5036332;28;20305;-77
2023/12/11 13:32:58;;;;;;;2.67;0.75;;;;;;;;;;5035637;28;20029;-82
2023/12/11 13:35:24;;;;;;;2.30;0.80;;;;;;;;;;5019557;28;20033;-77
2023/12/11 13:37:49;;;;;;;2.17;0.85;;;;;;;;;;5022242;28;20022;-77
2023/12/11 13:40:16;;;;;;;2.50;0.70;;;;;;;;;;5023108;28;20448;-78
2023/12/11 13:42:41;;;;;;;3.15;0.90;;;;;;;;;;5036584;28;20030;-78
2023/12/11 13:45:07;;;;;;;1.95;0.95;;;;;;;;;;5039124;28;20021;-78
2023/12/11 13:47:32;;;;;;;2.17;0.77;;;;;;;;;;5040665;28;20032;-77
2023/12/11 13:49:57;;;;;;;3.00;0.90;;;;;;;;;;5041923;28;20389;-78
2023/12/11 13:52:23;;;;;;;2.75;1.10;;;;;;;;;;5041391;28;20075;-79
2023/12/11 13:54:49;;;;;;;2.43;0.97;;;;;;;;;;5042121;28;20036;-78
2023/12/11 13:57:14;;;;;;;3.35;1.00;;;;;;;;;;5042996;28;20259;-78
2023/12/11 13:59:40;;;;;;;2.43;0.90;;;;;;;;;;5024821;28;20488;-78
2023/12/11 14:02:05;;;;;;;2.70;0.93;;;;;;;;;;5042556;28;20266;-79
2023/12/11 14:04:31;;;;;;;1.05;0.70;;;;;;;;;;5042186;28;20539;-77
2023/12/11 14:06:57;;;;;;;2.67;0.73;;;;;;;;;;5042096;28;20064;-79
2023/12/11 14:09:22;;;;;;;3.13;0.90;;;;;;;;;;5041880;28;20259;-78
2023/12/11 14:11:48;;;;;;;2.20;0.80;;;;;;;;;;5041934;28;20040;-78
2023/12/11 14:14:14;;;;;;;2.47;0.80;;;;;;;;;;5024366;28;20358;-79
2023/12/11 14:16:40;;;;;;;4.18;1.00;;;;;;;;;;5051732;28;20029;-77
2023/12/11 14:19:05;;;;;;;1.63;0.77;;;;;;;;;;5038440;28;20071;-77
2023/12/11 14:21:32;;;;;;;4.85;1.00;;;;;;;;;;5054662;28;20049;-77
2023/12/11 14:23:57;;;;;;;5.72;0.98;;;;;;;;;;5020486;28;20116;-77
2023/12/11 14:26:22;;;;;;;4.65;0.88;;;;;;;;;;5036675;28;20090;-79
2023/12/11 14:28:48;;;;;;;5.82;1.00;;;;;;;;;;5036150;28;20037;-78
2023/12/11 14:31:16;;;;;;;1.70;1.00;;;;;;;;;;5037352;28;20029;-79
2023/12/11 14:33:41;;;;;;;2.80;0.82;;;;;;;;;;5037239;28;20115;-78
2023/12/11 14:36:10;;;;;;;4.50;1.03;;;;;;;;;;5036790;28;20049;-78
2023/12/11 14:38:35;;;;;;;5.07;0.90;;;;;;;;;;5041702;28;20258;-78